createdAt,value
2018-11-02T00:01:10.528Z,5.45
2018-11-02T00:03:39.180Z,5.49
2018-11-02T00:06:07.985Z,5.51
2018-11-02T00:08:36.743Z,5.42
2018-11-02T00:11:05.932Z,5.15
2018-11-02T00:13:34.662Z,5.23
2018-11-02T00:16:03.783Z,5.03
2018-11-02T00:18:32.635Z,4.97
2018-11-02T00:21:01.668Z,5.09
2018-11-02T00:23:30.512Z,4.99
2018-11-02T00:25:59.596Z,5.21
2018-11-02T00:28:28.299Z,5.13
2018-11-02T00:30:57.060Z,5.06
2018-11-02T00:33:25.871Z,5.19
2018-11-02T00:35:54.629Z,5.06
2018-11-02T00:38:23.989Z,5.08
2018-11-02T00:40:53.019Z,5.11
2018-11-02T00:43:21.967Z,5.03
2018-11-02T00:45:51.063Z,5.18
2018-11-02T00:48:19.865Z,5.19
2018-11-02T00:50:48.559Z,5.24
2018-11-02T00:53:17.436Z,5.06
2018-11-02T00:55:46.284Z,5.13
2018-11-02T00:58:15.102Z,5.36
2018-11-02T01:00:44.010Z,5.46
2018-11-02T01:03:13.295Z,5.49
2018-11-02T01:05:42.082Z,5.45
2018-11-02T01:08:10.781Z,5.42
2018-11-02T01:10:39.779Z,5.55
2018-11-02T01:13:08.669Z,5.47
2018-11-02T01:15:37.440Z,5.30
2018-11-02T01:18:06.543Z,5.08
2018-11-02T01:20:35.424Z,5.17
2018-11-02T01:23:04.597Z,5.32
2018-11-02T01:25:40.182Z,5.38
2018-11-02T01:28:09.084Z,5.21
2018-11-02T01:30:38.377Z,5.22
2018-11-02T01:33:06.987Z,5.85
2018-11-02T01:35:35.967Z,6.00
2018-11-02T01:38:04.837Z,5.61
2018-11-02T01:40:33.980Z,5.02
2018-11-02T01:43:03.145Z,4.93
2018-11-02T01:45:32.339Z,4.93
2018-11-02T01:48:01.078Z,5.01
2018-11-02T01:50:29.830Z,4.95
2018-11-02T01:52:58.434Z,4.95
2018-11-02T01:55:27.281Z,4.83
2018-11-02T01:57:56.150Z,5.03
2018-11-02T02:00:24.958Z,5.05
2018-11-02T02:02:53.748Z,4.92
2018-11-02T02:05:22.451Z,4.81
2018-11-02T02:07:51.109Z,4.72
2018-11-02T02:10:20.038Z,4.66
2018-11-02T02:12:48.848Z,4.65
2018-11-02T02:15:17.683Z,4.83
2018-11-02T02:17:46.579Z,4.68
2018-11-02T02:20:15.344Z,4.63
2018-11-02T02:22:44.347Z,4.52
2018-11-02T02:25:13.765Z,4.61
2018-11-02T02:27:42.469Z,4.93
2018-11-02T02:30:15.523Z,5.07
2018-11-02T02:32:44.154Z,5.13
2018-11-02T02:35:13.157Z,5.05
2018-11-02T02:37:41.874Z,4.79
2018-11-02T02:40:12.078Z,4.73
2018-11-02T02:42:41.490Z,4.74
2018-11-02T02:45:11.425Z,4.78
2018-11-02T02:47:41.012Z,4.67
2018-11-02T02:50:12.285Z,4.60
2018-11-02T02:52:41.235Z,4.61
2018-11-02T02:55:09.999Z,4.57
2018-11-02T02:57:39.224Z,4.55
2018-11-02T03:00:10.371Z,4.58
2018-11-02T03:02:39.192Z,4.58
2018-11-02T03:05:08.145Z,4.58
2018-11-02T03:07:36.766Z,4.52
2018-11-02T03:10:06.311Z,4.45
2018-11-02T03:12:34.896Z,4.58
2018-11-02T03:15:03.519Z,4.55
2018-11-02T03:17:32.534Z,4.63
2018-11-02T03:20:01.270Z,4.61
2018-11-02T03:22:30.203Z,4.67
2018-11-02T03:24:58.904Z,4.57
2018-11-02T03:27:27.965Z,4.56
2018-11-02T03:29:56.672Z,4.62
2018-11-02T03:32:25.704Z,4.76
2018-11-02T03:34:54.577Z,4.81
2018-11-02T03:37:23.375Z,4.79
2018-11-02T03:39:52.164Z,4.81
2018-11-02T03:42:20.855Z,4.78
2018-11-02T03:44:49.861Z,4.77
2018-11-02T03:47:18.614Z,4.87
2018-11-02T03:49:47.362Z,4.82
2018-11-02T03:52:16.287Z,4.86
2018-11-02T03:54:45.437Z,4.97
2018-11-02T03:57:14.271Z,4.81
2018-11-02T03:59:43.110Z,4.83
2018-11-02T04:02:12.066Z,4.88
2018-11-02T04:04:40.960Z,5.00
2018-11-02T04:07:09.867Z,4.81
2018-11-02T04:09:38.644Z,4.74
2018-11-02T04:12:07.619Z,4.81
2018-11-02T04:14:36.517Z,4.81
2018-11-02T04:17:05.834Z,4.76
2018-11-02T04:19:34.596Z,4.75
2018-11-02T04:22:03.594Z,4.73
2018-11-02T04:24:32.317Z,4.66
2018-11-02T04:27:01.179Z,4.71
2018-11-02T04:29:30.036Z,4.72
2018-11-02T04:31:59.160Z,4.60
2018-11-02T04:34:27.833Z,4.83
2018-11-02T04:36:56.664Z,4.96
2018-11-02T04:39:25.823Z,4.82
2018-11-02T04:41:54.618Z,4.65
2018-11-02T04:44:23.409Z,4.55
2018-11-02T04:46:52.193Z,4.55
2018-11-02T04:49:21.190Z,4.63
2018-11-02T04:51:50.406Z,4.81
2018-11-02T04:54:19.233Z,4.86
2018-11-02T04:56:47.984Z,5.08
2018-11-02T04:59:16.715Z,5.33
2018-11-02T05:04:41.021Z,4.54
2018-11-02T05:07:10.103Z,4.57
2018-11-02T05:09:39.012Z,4.58
2018-11-02T05:12:07.729Z,4.57
2018-11-02T05:14:37.071Z,4.54
2018-11-02T05:17:05.766Z,4.62
2018-11-02T05:19:34.559Z,4.55
2018-11-02T05:22:03.405Z,4.50
2018-11-02T05:24:32.527Z,4.56
2018-11-02T05:27:01.748Z,4.73
2018-11-02T05:29:30.679Z,4.43
2018-11-02T05:31:59.940Z,4.35
2018-11-02T05:34:31.885Z,4.39
2018-11-02T05:37:01.564Z,4.36
2018-11-02T05:39:30.298Z,4.29
2018-11-02T05:41:59.439Z,4.43
2018-11-02T05:44:28.529Z,4.45
2018-11-02T05:46:57.319Z,4.37
2018-11-02T05:49:26.508Z,4.25
2018-11-02T05:51:55.387Z,4.31
2018-11-02T05:54:24.360Z,4.58
2018-11-02T05:56:53.507Z,4.66
2018-11-02T05:59:22.322Z,4.66
2018-11-02T06:01:51.176Z,4.77
2018-11-02T06:04:19.979Z,4.49
2018-11-02T06:06:48.980Z,4.19
2018-11-02T06:09:17.840Z,3.82
2018-11-02T06:11:46.489Z,4.51
2018-11-02T06:14:15.283Z,4.67
2018-11-02T06:16:44.393Z,4.49
2018-11-02T06:19:13.190Z,4.23
2018-11-02T06:21:42.090Z,4.32
2018-11-02T06:24:10.743Z,4.24
2018-11-02T06:26:39.566Z,4.24
2018-11-02T06:29:08.747Z,4.55
2018-11-02T06:31:37.699Z,4.46
2018-11-02T06:34:06.780Z,4.31
2018-11-02T06:36:35.791Z,4.29
2018-11-02T06:39:06.186Z,4.35
2018-11-02T06:41:35.044Z,4.32
2018-11-02T06:44:04.138Z,4.23
2018-11-02T06:46:33.091Z,4.23
2018-11-02T06:49:01.932Z,4.25
2018-11-02T06:51:30.741Z,4.27
2018-11-02T06:53:59.623Z,4.29
2018-11-02T06:56:28.513Z,4.36
2018-11-02T06:58:57.677Z,4.38
2018-11-02T07:01:26.579Z,4.36
2018-11-02T07:03:55.316Z,4.36
2018-11-02T07:06:24.209Z,4.39
2018-11-02T07:08:52.858Z,4.50
2018-11-02T07:11:28.411Z,4.60
2018-11-02T07:13:57.597Z,4.77
2018-11-02T07:16:26.266Z,4.92
2018-11-02T07:18:55.057Z,4.96
2018-11-02T07:21:23.946Z,5.13
2018-11-02T07:23:52.801Z,5.38
2018-11-02T07:26:21.848Z,5.49
2018-11-02T07:28:50.606Z,5.70
2018-11-02T07:31:20.160Z,5.69
2018-11-02T07:33:48.990Z,5.52
2018-11-02T07:36:17.639Z,5.53
2018-11-02T07:38:46.374Z,5.72
2018-11-02T07:41:15.203Z,6.06
2018-11-02T07:43:43.951Z,6.27
2018-11-02T07:46:12.657Z,6.48
2018-11-02T07:48:41.775Z,6.76
2018-11-02T07:51:10.832Z,7.08
2018-11-02T07:53:39.936Z,7.26
2018-11-02T07:56:08.844Z,7.21
2018-11-02T07:58:37.600Z,7.51
2018-11-02T08:01:06.838Z,7.73
2018-11-02T08:03:35.626Z,7.85
2018-11-02T08:06:04.714Z,7.95
2018-11-02T08:08:33.467Z,8.07
2018-11-02T08:11:02.487Z,8.15
2018-11-02T08:13:31.466Z,8.30
2018-11-02T08:16:00.262Z,8.39
2018-11-02T08:18:29.154Z,8.52
2018-11-02T08:20:58.093Z,8.66
2018-11-02T08:23:27.159Z,8.82
2018-11-02T08:25:57.051Z,8.96
2018-11-02T08:28:25.774Z,9.05
2018-11-02T08:30:54.848Z,9.07
2018-11-02T08:33:24.048Z,9.14
2018-11-02T08:35:52.834Z,9.21
2018-11-02T08:38:21.466Z,9.24
2018-11-02T08:40:50.192Z,9.17
2018-11-02T08:43:18.988Z,9.10
2018-11-02T08:45:47.783Z,9.13
2018-11-02T08:48:16.554Z,9.19
2018-11-02T08:50:45.378Z,9.35
2018-11-02T08:53:14.665Z,9.53
2018-11-02T08:55:43.459Z,9.66
2018-11-02T08:58:15.352Z,9.78
2018-11-02T09:00:44.412Z,9.77
2018-11-02T09:03:13.161Z,9.89
2018-11-02T09:05:42.107Z,9.99
2018-11-02T09:08:11.095Z,10.18
2018-11-02T09:10:40.782Z,10.33
2018-11-02T09:13:09.494Z,10.41
2018-11-02T09:15:38.275Z,10.47
2018-11-02T09:18:07.251Z,10.45
2018-11-02T09:20:36.479Z,10.48
2018-11-02T09:23:05.469Z,10.53
2018-11-02T09:25:34.322Z,10.49
2018-11-02T09:28:03.311Z,10.53
2018-11-02T09:30:32.019Z,10.51
2018-11-02T09:33:00.631Z,10.63
2018-11-02T09:35:29.501Z,10.85
2018-11-02T09:37:58.600Z,10.81
2018-11-02T09:40:27.516Z,10.90
2018-11-02T09:42:56.547Z,10.92
2018-11-02T09:45:25.384Z,10.91
2018-11-02T09:47:54.544Z,10.85
2018-11-02T09:50:23.247Z,10.96
2018-11-02T09:52:51.984Z,11.03
2018-11-02T09:55:21.011Z,10.96
2018-11-02T09:57:49.937Z,11.14
2018-11-02T10:00:19.007Z,11.21
2018-11-02T10:02:47.887Z,11.13
2018-11-02T10:05:16.690Z,11.27
2018-11-02T10:07:45.501Z,11.38
2018-11-02T10:10:14.479Z,11.50
2018-11-02T10:12:43.444Z,11.49
2018-11-02T10:15:14.044Z,11.80
2018-11-02T10:17:42.739Z,12.79
2018-11-02T10:20:12.196Z,13.11
2018-11-02T10:22:41.481Z,13.26
2018-11-02T10:25:11.887Z,12.83
2018-11-02T10:27:42.811Z,12.28
2018-11-02T10:30:13.452Z,12.43
2018-11-02T10:32:43.928Z,12.26
2018-11-02T10:35:12.890Z,12.42
2018-11-02T10:37:41.631Z,12.21
2018-11-02T10:40:13.592Z,12.76
2018-11-02T10:42:43.130Z,12.65
2018-11-02T10:45:12.175Z,12.69
2018-11-02T10:47:41.219Z,12.71
2018-11-02T10:50:10.034Z,12.91
2018-11-02T10:52:38.654Z,12.88
2018-11-02T10:55:07.722Z,12.83
2018-11-02T10:57:36.520Z,12.94
2018-11-02T11:00:10.263Z,12.95
2018-11-02T11:02:39.157Z,13.03
2018-11-02T11:05:08.730Z,13.03
2018-11-02T11:07:37.510Z,13.37
2018-11-02T11:10:08.432Z,13.52
2018-11-02T11:12:37.387Z,13.55
2018-11-02T11:15:06.410Z,13.56
2018-11-02T11:17:35.286Z,13.58
2018-11-02T11:20:04.167Z,13.71
2018-11-02T11:22:33.271Z,13.80
2018-11-02T11:25:02.023Z,13.95
2018-11-02T11:27:30.964Z,14.04
2018-11-02T11:29:59.796Z,14.60
2018-11-02T11:32:28.835Z,14.50
2018-11-02T11:34:57.722Z,14.54
2018-11-02T11:37:26.531Z,14.45
2018-11-02T11:39:55.503Z,14.60
2018-11-02T11:42:25.013Z,15.41
2018-11-02T11:44:53.914Z,16.22
2018-11-02T11:47:22.722Z,15.99
2018-11-02T11:49:51.586Z,15.10
2018-11-02T11:52:20.416Z,15.05
2018-11-02T11:55:52.042Z,14.67
2018-11-02T11:58:20.945Z,15.01
2018-11-02T12:00:49.994Z,16.08
2018-11-02T12:03:18.866Z,15.77
2018-11-02T12:05:47.705Z,15.49
2018-11-02T12:08:16.952Z,14.64
2018-11-02T12:10:45.715Z,14.61
2018-11-02T12:13:14.792Z,14.50
2018-11-02T12:15:45.720Z,14.24
2018-11-02T12:18:14.604Z,14.60
2018-11-02T12:20:43.513Z,14.14
2018-11-02T12:23:12.275Z,14.18
2018-11-02T12:25:41.111Z,14.37
2018-11-02T12:28:10.207Z,14.29
2018-11-02T12:30:39.279Z,14.30
2018-11-02T12:33:08.152Z,15.46
2018-11-02T12:35:37.076Z,14.53
2018-11-02T12:38:06.511Z,14.44
2018-11-02T12:40:35.463Z,14.69
2018-11-02T12:43:04.139Z,14.80
2018-11-02T12:45:33.220Z,14.53
2018-11-02T12:48:02.242Z,14.22
2018-11-02T12:50:31.237Z,14.07
2018-11-02T12:53:00.566Z,13.88
2018-11-02T12:55:29.468Z,13.72
2018-11-02T12:57:58.112Z,13.71
2018-11-02T13:00:28.055Z,13.66
2018-11-02T13:02:56.931Z,13.56
2018-11-02T13:05:25.659Z,13.47
2018-11-02T13:07:54.975Z,13.39
2018-11-02T13:10:24.113Z,13.69
2018-11-02T13:12:52.840Z,13.62
2018-11-02T13:15:23.049Z,13.68
2018-11-02T13:17:52.109Z,13.65
2018-11-02T13:20:21.058Z,14.08
2018-11-02T13:22:50.707Z,14.37
2018-11-02T13:25:20.995Z,13.78
2018-11-02T13:27:50.545Z,13.50
2018-11-02T13:30:19.326Z,13.62
2018-11-02T13:32:47.978Z,13.68
2018-11-02T13:35:18.155Z,13.51
2018-11-02T13:37:47.548Z,13.49
2018-11-02T13:40:17.483Z,13.44
2018-11-02T13:42:46.609Z,13.46
2018-11-02T13:45:16.688Z,13.50
2018-11-02T13:47:45.892Z,13.53
2018-11-02T13:50:14.704Z,13.46
2018-11-02T13:52:44.067Z,13.42
2018-11-02T13:55:13.430Z,13.33
2018-11-02T13:57:42.353Z,13.26
2018-11-02T14:00:16.237Z,13.33
2018-11-02T14:02:45.420Z,13.37
2018-11-02T14:05:15.602Z,13.49
2018-11-02T14:07:44.818Z,13.49
2018-11-02T14:10:14.197Z,13.52
2018-11-02T14:12:43.090Z,13.61
2018-11-02T14:15:13.347Z,13.67
2018-11-02T14:17:42.795Z,13.76
2018-11-02T14:20:12.419Z,13.54
2018-11-02T14:22:41.163Z,13.48
2018-11-02T14:25:13.317Z,13.35
2018-11-02T14:27:42.372Z,13.28
2018-11-02T14:30:16.143Z,13.21
2018-11-02T14:32:45.632Z,13.13
2018-11-02T14:35:14.350Z,13.02
2018-11-02T14:37:43.279Z,13.01
2018-11-02T14:40:12.354Z,12.97
2018-11-02T14:42:41.838Z,13.08
2018-11-02T14:45:14.026Z,12.77
2018-11-02T14:47:43.140Z,12.92
2018-11-02T14:50:12.295Z,12.65
2018-11-02T14:52:41.159Z,12.67
2018-11-02T14:55:10.850Z,12.54
2018-11-02T14:57:39.847Z,12.50
2018-11-02T15:00:10.108Z,12.28
2018-11-02T15:02:39.267Z,12.06
2018-11-02T15:05:09.459Z,11.95
2018-11-02T15:07:38.047Z,11.74
2018-11-02T15:10:07.131Z,11.69
2018-11-02T15:12:36.096Z,11.66
2018-11-02T15:15:05.191Z,11.50
2018-11-02T15:17:33.823Z,11.31
2018-11-02T15:20:02.732Z,11.11
2018-11-02T15:22:31.822Z,11.01
2018-11-02T15:25:00.591Z,10.86
2018-11-02T15:27:29.631Z,10.82
2018-11-02T15:29:58.381Z,10.54
2018-11-02T15:32:27.196Z,10.48
2018-11-02T15:34:56.279Z,10.27
2018-11-02T15:37:25.451Z,10.37
2018-11-02T15:39:54.238Z,10.34
2018-11-02T15:42:23.176Z,10.14
2018-11-02T15:44:52.047Z,10.10
2018-11-02T15:47:20.855Z,10.05
2018-11-02T15:49:50.717Z,9.80
2018-11-02T15:52:19.552Z,9.53
2018-11-02T15:54:48.418Z,9.29
2018-11-02T15:57:18.551Z,9.24
2018-11-02T15:59:47.435Z,9.19
2018-11-02T16:02:16.342Z,9.16
2018-11-02T16:04:45.199Z,9.06
2018-11-02T16:07:14.023Z,9.06
2018-11-02T16:09:42.817Z,9.02
2018-11-02T16:12:11.745Z,8.78
2018-11-02T16:14:40.357Z,8.59
2018-11-02T16:17:09.171Z,8.57
2018-11-02T16:19:37.943Z,8.39
2018-11-02T16:22:06.863Z,8.29
2018-11-02T16:24:35.618Z,8.18
2018-11-02T16:27:04.344Z,8.28
2018-11-02T16:29:35.927Z,8.16
2018-11-02T16:32:04.911Z,8.02
2018-11-02T16:34:33.749Z,7.97
2018-11-02T16:37:02.546Z,7.91
2018-11-02T16:39:31.339Z,8.13
2018-11-02T16:42:00.631Z,8.11
2018-11-02T16:44:29.398Z,7.99
2018-11-02T16:46:58.421Z,8.12
2018-11-02T16:49:27.556Z,8.16
2018-11-02T16:51:56.616Z,8.22
2018-11-02T16:54:25.411Z,8.21
2018-11-02T16:56:54.391Z,8.20
2018-11-02T16:59:23.211Z,8.13
2018-11-02T17:01:51.937Z,8.05
2018-11-02T17:04:20.720Z,8.04
2018-11-02T17:06:49.735Z,8.09
2018-11-02T17:09:18.831Z,8.04
2018-11-02T17:11:47.878Z,7.94
2018-11-02T17:14:16.418Z,7.61
2018-11-02T17:16:45.300Z,7.48
2018-11-02T17:19:14.455Z,7.34
2018-11-02T17:21:46.256Z,7.27
2018-11-02T17:24:15.737Z,7.24
2018-11-02T17:26:44.549Z,7.16
2018-11-02T17:29:14.550Z,7.10
2018-11-02T17:31:43.980Z,7.07
2018-11-02T17:34:13.077Z,7.03
2018-11-02T17:36:42.094Z,7.07
2018-11-02T17:39:12.587Z,6.92
2018-11-02T17:41:41.399Z,6.96
2018-11-02T17:44:10.689Z,6.80
2018-11-02T17:46:40.576Z,6.76
2018-11-02T17:49:09.460Z,6.80
2018-11-02T17:51:38.839Z,6.71
2018-11-02T17:54:07.650Z,6.71
2018-11-02T17:56:36.739Z,6.55
2018-11-02T17:59:05.798Z,6.72
2018-11-02T18:01:34.454Z,6.61
2018-11-02T18:04:03.237Z,6.61
2018-11-02T18:06:32.300Z,6.63
2018-11-02T18:09:01.626Z,6.71
2018-11-02T18:11:30.667Z,6.69
2018-11-02T18:13:59.596Z,6.76
2018-11-02T18:16:29.063Z,6.69
2018-11-02T18:18:57.967Z,6.90
2018-11-02T18:21:26.851Z,7.14
2018-11-02T18:23:55.776Z,6.97
2018-11-02T18:26:24.780Z,6.77
2018-11-02T18:28:53.567Z,6.71
2018-11-02T18:31:22.408Z,6.71
2018-11-02T18:33:51.357Z,6.63
2018-11-02T18:36:20.992Z,6.55
2018-11-02T18:38:50.570Z,6.60
2018-11-02T18:41:20.183Z,6.53
2018-11-02T18:43:49.727Z,6.54
2018-11-02T18:46:19.305Z,6.44
2018-11-02T18:48:48.797Z,6.44
2018-11-02T18:51:18.314Z,6.42
2018-11-02T18:53:48.248Z,6.30
2018-11-02T18:56:17.751Z,6.27
2018-11-02T18:58:47.445Z,6.21
2018-11-02T19:01:17.186Z,6.24
2018-11-02T19:03:46.604Z,6.05
2018-11-02T19:06:16.226Z,6.07
2018-11-02T19:08:46.238Z,6.09
2018-11-02T19:11:15.909Z,6.00
2018-11-02T19:13:46.231Z,5.90
2018-11-02T19:16:15.941Z,5.92
2018-11-02T19:18:46.278Z,5.84
2018-11-02T19:21:15.888Z,5.92
2018-11-02T19:23:45.683Z,5.85
2018-11-02T19:26:15.802Z,5.48
2018-11-02T19:28:45.596Z,5.89
2018-11-02T19:31:15.173Z,5.93
2018-11-02T19:33:44.844Z,5.99
2018-11-02T19:36:14.637Z,6.00
2018-11-02T19:38:45.414Z,6.01
2018-11-02T19:41:15.175Z,5.95
2018-11-02T19:43:44.652Z,6.10
2018-11-02T19:46:14.192Z,6.07
2018-11-02T19:48:43.978Z,6.10
2018-11-02T19:51:13.328Z,6.17
2018-11-02T19:53:43.929Z,6.17
2018-11-02T19:56:13.435Z,6.18
2018-11-02T19:58:42.903Z,6.16
2018-11-02T20:01:12.441Z,6.17
2018-11-02T20:03:41.933Z,6.22
2018-11-02T20:06:11.983Z,6.25
2018-11-02T20:08:41.440Z,6.23
2018-11-02T20:11:10.941Z,6.22
2018-11-02T20:14:57.420Z,6.16
2018-11-02T20:17:32.325Z,6.26
2018-11-02T20:20:05.467Z,6.16
2018-11-02T20:22:38.170Z,6.13
2018-11-02T20:25:10.085Z,6.13
2018-11-02T20:27:42.884Z,6.18
2018-11-02T20:30:19.027Z,6.20
2018-11-02T20:32:53.857Z,6.17
2018-11-02T20:35:27.010Z,6.24
2018-11-02T20:37:59.551Z,6.40
2018-11-02T20:40:29.701Z,6.28
2018-11-02T20:42:58.581Z,6.24
2018-11-02T20:45:28.605Z,6.23
2018-11-02T20:47:57.767Z,6.25
2018-11-02T20:50:28.126Z,6.22
2018-11-02T20:52:57.276Z,6.19
2018-11-02T20:55:27.344Z,6.16
2018-11-02T20:57:56.644Z,6.09
2018-11-02T21:00:25.997Z,6.10
2018-11-02T21:02:55.013Z,6.07
2018-11-02T21:05:23.965Z,6.08
2018-11-02T21:07:54.587Z,6.04
2018-11-02T21:10:24.373Z,6.18
2018-11-02T21:12:55.277Z,6.12
2018-11-02T21:15:26.918Z,6.13
2018-11-02T21:17:57.187Z,6.17
2018-11-02T21:20:27.131Z,6.34
2018-11-02T21:22:55.768Z,6.16
2018-11-02T21:25:27.812Z,6.12
2018-11-02T21:28:00.097Z,6.01
2018-11-02T21:30:32.568Z,6.03
2018-11-02T21:33:04.929Z,6.02
2018-11-02T21:35:33.976Z,6.07
2018-11-02T21:38:02.955Z,6.02
2018-11-02T21:40:31.731Z,6.04
2018-11-02T21:43:00.638Z,6.02
2018-11-02T21:45:29.583Z,5.97
2018-11-02T21:48:02.301Z,5.98
2018-11-02T21:50:31.402Z,5.94
2018-11-02T21:53:00.267Z,5.89
2018-11-02T21:55:29.376Z,5.92
2018-11-02T21:57:58.470Z,5.86
2018-11-02T22:00:27.356Z,6.18
2018-11-02T22:02:56.110Z,6.20
2018-11-02T22:05:24.934Z,6.26
2018-11-02T22:07:53.834Z,6.23
2018-11-02T22:10:22.778Z,6.13
2018-11-02T22:12:53.450Z,6.07
2018-11-02T22:15:27.768Z,5.95
2018-11-02T22:17:57.375Z,5.94
2018-11-02T22:20:26.208Z,5.90
2018-11-02T22:22:55.171Z,5.88
2018-11-02T22:25:24.054Z,5.98
2018-11-02T22:27:52.794Z,5.86
2018-11-02T22:30:21.555Z,5.81
2018-11-02T22:32:50.648Z,5.82
2018-11-02T22:35:19.704Z,6.00
2018-11-02T22:37:48.428Z,5.86
2018-11-02T22:40:17.119Z,5.95
2018-11-02T22:42:46.068Z,5.95
2018-11-02T22:45:15.708Z,5.97
2018-11-02T22:47:49.605Z,6.02
2018-11-02T22:50:18.675Z,6.04
2018-11-02T22:52:47.608Z,6.02
2018-11-02T22:55:17.813Z,6.03
2018-11-02T22:57:46.593Z,5.99
2018-11-02T23:00:17.411Z,6.15
2018-11-02T23:02:46.867Z,6.07
2018-11-02T23:05:15.652Z,6.03
2018-11-02T23:07:45.089Z,6.01
2018-11-02T23:10:16.799Z,6.07
2018-11-02T23:12:45.709Z,6.15
2018-11-02T23:15:14.683Z,6.19
2018-11-02T23:17:46.453Z,6.23
2018-11-02T23:20:15.663Z,6.27
2018-11-02T23:22:46.290Z,6.21
2018-11-02T23:25:16.106Z,6.18
2018-11-02T23:27:45.511Z,6.20
2018-11-02T23:30:14.336Z,6.20
2018-11-02T23:32:45.988Z,6.12
2018-11-02T23:35:17.042Z,6.11
2018-11-02T23:37:47.866Z,6.14
2018-11-02T23:40:20.684Z,6.14
2018-11-02T23:42:49.903Z,6.11
2018-11-02T23:45:19.788Z,6.04
2018-11-02T23:47:54.844Z,6.06
2018-11-02T23:50:25.068Z,6.16
2018-11-02T23:52:54.156Z,6.06
2018-11-02T23:55:23.644Z,6.09
2018-11-02T23:57:54.187Z,5.91
